createdAt,value
2016-02-29T00:00:57.342Z,1014.59
2016-02-29T00:01:57.314Z,1014.59
2016-02-29T00:02:57.301Z,1014.55
2016-02-29T00:03:57.287Z,1014.56
2016-02-29T00:04:57.275Z,1014.56
2016-02-29T00:05:57.950Z,1014.56
2016-02-29T00:06:57.231Z,1014.51
2016-02-29T00:07:57.217Z,1014.51
2016-02-29T00:08:57.189Z,1014.49
2016-02-29T00:09:57.176Z,1014.46
2016-02-29T00:10:57.164Z,1014.47
2016-02-29T00:11:57.151Z,1014.49
2016-02-29T00:12:57.122Z,1014.53
2016-02-29T00:13:57.109Z,1014.51
2016-02-29T00:14:57.081Z,1014.51
2016-02-29T00:15:57.067Z,1014.54
2016-02-29T00:16:57.055Z,1014.57
2016-02-29T00:17:57.042Z,1014.58
2016-02-29T00:18:57.014Z,1014.58
2016-02-29T00:19:57.000Z,1014.58
2016-02-29T00:20:56.988Z,1014.55
2016-02-29T00:21:56.958Z,1014.54
2016-02-29T00:22:56.946Z,1014.55
2016-02-29T00:23:56.933Z,1014.53
2016-02-29T00:24:56.935Z,1014.49
2016-02-29T00:25:56.891Z,1014.51
2016-02-29T00:26:56.878Z,1014.5
2016-02-29T00:27:56.850Z,1014.5
2016-02-29T00:28:56.837Z,1014.49
2016-02-29T00:29:56.813Z,1014.47
2016-02-29T00:30:56.801Z,1014.51
2016-02-29T00:31:56.787Z,1014.49
2016-02-29T00:32:56.775Z,1014.48
2016-02-29T00:33:56.745Z,1014.48
2016-02-29T00:34:56.733Z,1014.5
2016-02-29T00:35:56.720Z,1014.52
2016-02-29T00:36:56.691Z,1014.52
2016-02-29T00:37:56.678Z,1014.55
2016-02-29T00:38:56.666Z,1014.53
2016-02-29T00:39:56.652Z,1014.56
2016-02-29T00:40:56.639Z,1014.51
2016-02-29T00:41:56.611Z,1014.48
2016-02-29T00:42:56.598Z,1014.51
2016-02-29T00:43:56.569Z,1014.5
2016-02-29T00:44:56.557Z,1014.45
2016-02-29T00:45:56.544Z,1014.5
2016-02-29T00:46:56.515Z,1014.52
2016-02-29T00:47:56.502Z,1014.51
2016-02-29T00:48:56.489Z,1014.51
2016-02-29T00:49:56.476Z,1014.52
2016-02-29T00:50:56.448Z,1014.56
2016-02-29T00:51:56.435Z,1014.52
2016-02-29T00:52:56.421Z,1014.51
2016-02-29T00:53:56.409Z,1014.51
2016-02-29T00:54:56.380Z,1014.54
2016-02-29T00:55:56.367Z,1014.56
2016-02-29T00:56:56.339Z,1014.55
2016-02-29T00:57:56.342Z,1014.58
2016-02-29T00:58:56.313Z,1014.59
2016-02-29T00:59:56.284Z,1014.64
2016-02-29T01:00:56.271Z,1014.64
2016-02-29T01:01:56.258Z,1014.64
2016-02-29T01:02:56.245Z,1014.63
2016-02-29T01:03:56.233Z,1014.63
2016-02-29T01:04:56.204Z,1014.65
2016-02-29T01:05:56.191Z,1014.62
2016-02-29T01:06:56.162Z,1014.62
2016-02-29T01:07:56.150Z,1014.61
2016-02-29T01:08:56.136Z,1014.59
2016-02-29T01:09:56.108Z,1014.57
2016-02-29T01:10:56.094Z,1014.61
2016-02-29T01:11:56.082Z,1014.59
2016-02-29T01:12:56.069Z,1014.58
2016-02-29T01:13:56.041Z,1014.56
2016-02-29T01:14:56.028Z,1014.58
2016-02-29T01:15:56.015Z,1014.58
2016-02-29T01:16:56.002Z,1014.58
2016-02-29T01:17:55.974Z,1014.54
2016-02-29T01:18:55.961Z,1014.53
2016-02-29T01:19:55.932Z,1014.57
2016-02-29T01:20:55.918Z,1014.54
2016-02-29T01:21:55.907Z,1014.61
2016-02-29T01:22:55.877Z,1014.58
2016-02-29T01:23:55.865Z,1014.61
2016-02-29T01:24:55.852Z,1014.63
2016-02-29T01:25:55.838Z,1014.61
2016-02-29T01:26:55.810Z,1014.63
2016-02-29T01:27:55.798Z,1014.66
2016-02-29T01:28:55.785Z,1014.63
2016-02-29T01:29:55.755Z,1014.68
2016-02-29T01:30:55.742Z,1014.66
2016-02-29T01:31:55.729Z,1014.65
2016-02-29T01:32:55.701Z,1014.66
2016-02-29T01:33:55.688Z,1014.66
2016-02-29T01:34:55.676Z,1014.7
2016-02-29T01:35:55.647Z,1014.71
2016-02-29T01:36:55.634Z,1014.69
2016-02-29T01:37:55.621Z,1014.69
2016-02-29T01:38:55.608Z,1014.71
2016-02-29T01:39:55.579Z,1014.71
2016-02-29T01:40:55.566Z,1014.69
2016-02-29T01:41:55.553Z,1014.72
2016-02-29T01:42:55.525Z,1014.71
2016-02-29T01:43:55.511Z,1014.73
2016-02-29T01:44:55.499Z,1014.74
2016-02-29T01:45:55.486Z,1014.72
2016-02-29T01:46:55.458Z,1014.75
2016-02-29T01:47:55.444Z,1014.72
2016-02-29T01:48:55.416Z,1014.72
2016-02-29T01:49:55.403Z,1014.72
2016-02-29T01:50:55.390Z,1014.7
2016-02-29T01:51:55.377Z,1014.7
2016-02-29T01:52:55.349Z,1014.69
2016-02-29T01:53:55.336Z,1014.71
2016-02-29T01:54:55.324Z,1014.71
2016-02-29T01:55:55.310Z,1014.8
2016-02-29T01:56:55.282Z,1014.77
2016-02-29T01:57:55.269Z,1014.79
2016-02-29T01:58:55.240Z,1014.77
2016-02-29T01:59:55.227Z,1014.78
2016-02-29T02:00:55.212Z,1014.76
2016-02-29T02:01:55.184Z,1014.73
2016-02-29T02:02:55.141Z,1014.68
2016-02-29T02:03:55.112Z,1014.68
2016-02-29T02:04:55.069Z,1014.65
2016-02-29T02:05:55.042Z,1014.67
2016-02-29T02:06:55.024Z,1014.63
2016-02-29T02:07:55.006Z,1014.68
2016-02-29T02:08:54.987Z,1014.7
2016-02-29T02:09:54.953Z,1014.7
2016-02-29T02:10:54.936Z,1014.69
2016-02-29T02:11:54.905Z,1014.67
2016-02-29T02:12:54.891Z,1014.68
2016-02-29T02:13:54.875Z,1014.66
2016-02-29T02:14:54.845Z,1014.63
2016-02-29T02:15:54.830Z,1014.7
2016-02-29T02:16:54.817Z,1014.74
2016-02-29T02:17:54.787Z,1014.72
2016-02-29T02:18:54.774Z,1014.72
2016-02-29T02:19:54.759Z,1014.78
2016-02-29T02:20:54.731Z,1014.75
2016-02-29T02:21:54.733Z,1014.75
2016-02-29T02:22:54.706Z,1014.72
2016-02-29T02:23:54.692Z,1014.76
2016-02-29T02:24:54.664Z,1014.75
2016-02-29T02:25:54.651Z,1014.8
2016-02-29T02:26:54.637Z,1014.78
2016-02-29T02:27:54.609Z,1014.76
2016-02-29T02:28:54.596Z,1014.79
2016-02-29T02:29:54.583Z,1014.78
2016-02-29T02:30:54.554Z,1014.77
2016-02-29T02:31:54.542Z,1014.76
2016-02-29T02:32:54.529Z,1014.78
2016-02-29T02:33:54.516Z,1014.75
2016-02-29T02:34:54.503Z,1014.76
2016-02-29T02:35:54.474Z,1014.75
2016-02-29T02:36:54.461Z,1014.76
2016-02-29T02:37:54.433Z,1014.78
2016-02-29T02:38:54.419Z,1014.81
2016-02-29T02:39:54.407Z,1014.82
2016-02-29T02:40:54.379Z,1014.79
2016-02-29T02:41:54.365Z,1014.79
2016-02-29T02:42:54.352Z,1014.79
2016-02-29T02:43:54.324Z,1014.77
2016-02-29T02:44:54.311Z,1014.79
2016-02-29T02:45:54.298Z,1014.77
2016-02-29T02:46:54.285Z,1014.78
2016-02-29T02:47:54.257Z,1014.76
2016-02-29T02:48:54.243Z,1014.8
2016-02-29T02:49:54.230Z,1014.76
2016-02-29T02:50:54.202Z,1014.76
2016-02-29T02:51:54.204Z,1014.73
2016-02-29T02:52:54.176Z,1014.74
2016-02-29T02:53:54.164Z,1014.68
2016-02-29T02:54:54.134Z,1014.65
2016-02-29T02:55:54.122Z,1014.66
2016-02-29T02:56:54.109Z,1014.69
2016-02-29T02:57:54.080Z,1014.68
2016-02-29T02:58:54.068Z,1014.72
2016-02-29T02:59:54.055Z,1014.7
2016-02-29T03:00:54.026Z,1014.72
2016-02-29T03:01:54.028Z,1014.71
2016-02-29T03:02:54.000Z,1014.71
2016-02-29T03:03:53.972Z,1014.69
2016-02-29T03:04:53.959Z,1014.73
2016-02-29T03:05:53.946Z,1014.73
2016-02-29T03:06:53.917Z,1014.77
2016-02-29T03:07:53.905Z,1014.76
2016-02-29T03:08:53.891Z,1014.74
2016-02-29T03:09:53.863Z,1014.72
2016-02-29T03:10:53.850Z,1014.74
2016-02-29T03:11:53.852Z,1014.73
2016-02-29T03:12:53.824Z,1014.72
2016-02-29T03:13:53.796Z,1014.76
2016-02-29T03:14:53.782Z,1014.73
2016-02-29T03:15:53.754Z,1014.75
2016-02-29T03:16:53.741Z,1014.7
2016-02-29T03:17:53.729Z,1014.67
2016-02-29T03:18:53.699Z,1014.7
2016-02-29T03:19:53.687Z,1014.64
2016-02-29T03:20:53.673Z,1014.64
2016-02-29T03:21:53.660Z,1014.65
2016-02-29T03:22:53.631Z,1014.6
2016-02-29T03:23:53.620Z,1014.61
2016-02-29T03:24:53.606Z,1014.6
2016-02-29T03:25:53.578Z,1014.58
2016-02-29T03:26:53.564Z,1014.6
2016-02-29T03:27:53.551Z,1014.62
2016-02-29T03:28:53.523Z,1014.64
2016-02-29T03:29:53.511Z,1014.66
2016-02-29T03:30:53.498Z,1014.66
2016-02-29T03:31:53.484Z,1014.65
2016-02-29T03:32:53.456Z,1014.65
2016-02-29T03:33:53.442Z,1014.66
2016-02-29T03:34:53.431Z,1014.63
2016-02-29T03:35:53.402Z,1014.66
2016-02-29T03:36:53.389Z,1014.7
2016-02-29T03:37:53.375Z,1014.73
2016-02-29T03:38:53.363Z,1014.73
2016-02-29T03:39:53.333Z,1014.74
2016-02-29T03:40:53.321Z,1014.76
2016-02-29T03:41:53.292Z,1014.73
2016-02-29T03:42:53.279Z,1014.73
2016-02-29T03:43:53.267Z,1014.77
2016-02-29T03:44:53.254Z,1014.77
2016-02-29T03:45:53.224Z,1014.78
2016-02-29T03:46:53.212Z,1014.76
2016-02-29T03:47:53.184Z,1014.8
2016-02-29T03:48:53.171Z,1014.76
2016-02-29T03:49:53.158Z,1014.75
2016-02-29T03:50:53.145Z,1014.75
2016-02-29T03:51:53.116Z,1014.75
2016-02-29T03:52:53.103Z,1014.76
2016-02-29T03:53:53.091Z,1014.75
2016-02-29T03:54:53.062Z,1014.78
2016-02-29T03:55:53.049Z,1014.76
2016-02-29T03:56:53.036Z,1014.75
2016-02-29T03:57:53.007Z,1014.78
2016-02-29T03:58:52.995Z,1014.79
2016-02-29T03:59:52.982Z,1014.77
2016-02-29T04:00:52.953Z,1014.86
2016-02-29T04:01:52.940Z,1014.84
2016-02-29T04:02:52.928Z,1014.86
2016-02-29T04:03:52.899Z,1014.87
2016-02-29T04:04:52.886Z,1014.89
2016-02-29T04:05:52.873Z,1014.9
2016-02-29T04:06:52.861Z,1014.94
2016-02-29T04:07:52.847Z,1014.87
2016-02-29T04:08:52.818Z,1014.9
2016-02-29T04:09:52.805Z,1014.89
2016-02-29T04:10:52.777Z,1014.9
2016-02-29T04:11:52.763Z,1014.95
2016-02-29T04:12:52.751Z,1014.91
2016-02-29T04:13:52.722Z,1014.93
2016-02-29T04:14:52.710Z,1014.92
2016-02-29T04:15:52.696Z,1014.94
2016-02-29T04:16:52.683Z,1014.93
2016-02-29T04:17:52.654Z,1014.92
2016-02-29T04:18:52.643Z,1014.95
2016-02-29T04:19:52.629Z,1014.9
2016-02-29T04:20:52.632Z,1014.9
2016-02-29T04:21:52.588Z,1014.92
2016-02-29T04:22:52.574Z,1014.9
2016-02-29T04:23:52.546Z,1014.9
2016-02-29T04:24:52.548Z,1014.88
2016-02-29T04:25:52.520Z,1014.9
2016-02-29T04:26:52.492Z,1014.92
2016-02-29T04:27:52.479Z,1014.92
2016-02-29T04:28:52.452Z,1014.93
2016-02-29T04:29:52.438Z,1014.89
2016-02-29T04:30:52.425Z,1014.89
2016-02-29T04:31:52.413Z,1014.88
2016-02-29T04:32:52.384Z,1014.92
2016-02-29T04:33:52.371Z,1014.9
2016-02-29T04:34:52.357Z,1014.94
2016-02-29T04:35:52.330Z,1014.91
2016-02-29T04:36:52.316Z,1014.95
2016-02-29T04:37:52.304Z,1014.94
2016-02-29T04:38:52.275Z,1014.97
2016-02-29T04:39:52.262Z,1014.94
2016-02-29T04:40:52.249Z,1014.92
2016-02-29T04:41:52.220Z,1014.92
2016-02-29T04:42:52.207Z,1014.88
2016-02-29T04:43:52.195Z,1014.88
2016-02-29T04:44:52.166Z,1014.87
2016-02-29T04:45:52.153Z,1014.85
2016-02-29T04:46:52.140Z,1014.86
2016-02-29T04:47:52.111Z,1014.84
2016-02-29T04:48:52.099Z,1014.83
2016-02-29T04:49:52.086Z,1014.85
2016-02-29T04:50:52.073Z,1014.86
2016-02-29T04:51:52.044Z,1014.81
2016-02-29T04:52:52.031Z,1014.81
2016-02-29T04:53:52.019Z,1014.86
2016-02-29T04:54:52.005Z,1014.83
2016-02-29T04:55:51.977Z,1014.9
2016-02-29T04:56:51.964Z,1014.93
2016-02-29T04:57:51.936Z,1014.86
2016-02-29T04:58:51.922Z,1014.88
2016-02-29T04:59:51.910Z,1014.89
2016-02-29T05:00:51.880Z,1014.91
2016-02-29T05:01:51.869Z,1014.93
2016-02-29T05:02:51.855Z,1014.94
2016-02-29T05:03:51.827Z,1014.94
2016-02-29T05:04:51.813Z,1014.94
2016-02-29T05:05:51.804Z,1014.94
2016-02-29T05:06:51.775Z,1014.98
2016-02-29T05:07:51.762Z,1014.98
2016-02-29T05:08:51.749Z,1015
2016-02-29T05:09:51.721Z,1014.97
2016-02-29T05:10:51.707Z,1015
2016-02-29T05:11:51.695Z,1014.99
2016-02-29T05:12:51.665Z,1015.04
2016-02-29T05:13:51.653Z,1015.04
2016-02-29T05:14:51.641Z,1015.05
2016-02-29T05:15:51.612Z,1015.04
2016-02-29T05:16:51.599Z,1015.05
2016-02-29T05:17:51.586Z,1015.04
2016-02-29T05:18:51.557Z,1015.01
2016-02-29T05:19:51.544Z,1015.01
2016-02-29T05:20:51.531Z,1015.02
2016-02-29T05:21:51.503Z,1015
2016-02-29T05:22:51.489Z,1015.02
2016-02-29T05:23:51.477Z,1014.99
2016-02-29T05:24:51.464Z,1014.97
2016-02-29T05:25:51.435Z,1014.97
2016-02-29T05:26:51.422Z,1014.98
2016-02-29T05:27:51.410Z,1014.99
2016-02-29T05:28:51.381Z,1014.98
2016-02-29T05:29:51.368Z,1014.94
2016-02-29T05:30:51.355Z,1014.93
2016-02-29T05:31:51.326Z,1014.95
2016-02-29T05:32:51.313Z,1014.98
2016-02-29T05:33:51.302Z,1014.92
2016-02-29T05:34:51.288Z,1014.94
2016-02-29T05:35:51.260Z,1014.91
2016-02-29T05:36:51.246Z,1014.94
2016-02-29T05:37:51.218Z,1014.92
2016-02-29T05:38:51.205Z,1014.91
2016-02-29T05:39:51.193Z,1014.89
2016-02-29T05:40:51.163Z,1014.92
2016-02-29T05:41:51.151Z,1014.89
2016-02-29T05:42:51.137Z,1014.88
2016-02-29T05:43:51.110Z,1014.86
2016-02-29T05:44:51.095Z,1014.88
2016-02-29T05:45:51.084Z,1014.86
2016-02-29T05:46:51.071Z,1014.89
2016-02-29T05:47:51.042Z,1014.92
2016-02-29T05:48:51.029Z,1014.91
2016-02-29T05:49:51.016Z,1014.93
2016-02-29T05:50:51.003Z,1014.97
2016-02-29T05:51:50.975Z,1015
2016-02-29T05:52:50.962Z,1014.99
2016-02-29T05:53:50.948Z,1015.06
2016-02-29T05:54:50.920Z,1015.07
2016-02-29T05:55:50.906Z,1015.08
2016-02-29T05:56:50.878Z,1015.09
2016-02-29T05:57:50.873Z,1015.09
2016-02-29T05:58:50.842Z,1015.09
2016-02-29T05:59:50.833Z,1015.11
2016-02-29T06:00:52.792Z,1015.09
2016-02-29T06:01:50.788Z,1015.11
2016-02-29T06:02:50.775Z,1015.12
2016-02-29T06:03:50.762Z,1015.11
2016-02-29T06:04:50.749Z,1015.12
2016-02-29T06:05:50.722Z,1015.06
2016-02-29T06:06:50.708Z,1015.08
2016-02-29T06:07:50.695Z,1015.08
2016-02-29T06:08:50.666Z,1015.11
2016-02-29T06:09:50.653Z,1015.07
2016-02-29T06:10:50.641Z,1015.08
2016-02-29T06:11:50.613Z,1015.09
2016-02-29T06:12:50.599Z,1015.1
2016-02-29T06:13:50.586Z,1015.04
2016-02-29T06:14:50.573Z,1015.02
2016-02-29T06:15:50.545Z,1015.04
2016-02-29T06:16:50.532Z,1015.04
2016-02-29T06:17:50.511Z,1015.05
2016-02-29T06:18:50.499Z,1015.02
2016-02-29T06:19:50.469Z,1015.04
2016-02-29T06:20:50.457Z,1015.06
2016-02-29T06:21:50.428Z,1015.04
2016-02-29T06:22:50.415Z,1015.03
2016-02-29T06:23:50.402Z,1015.03
2016-02-29T06:24:50.390Z,1015.05
2016-02-29T06:25:50.376Z,1015.03
2016-02-29T06:26:50.348Z,1015.02
2016-02-29T06:27:50.334Z,1015.07
2016-02-29T06:28:50.306Z,1015.04
2016-02-29T06:29:50.293Z,1015.13
2016-02-29T06:30:50.281Z,1015.12
2016-02-29T06:31:50.251Z,1015.14
2016-02-29T06:32:50.239Z,1015.14
2016-02-29T06:33:50.225Z,1015.16
2016-02-29T06:34:50.197Z,1015.16
2016-02-29T06:35:50.184Z,1015.16
2016-02-29T06:36:50.172Z,1015.11
2016-02-29T06:37:50.143Z,1015.18
2016-02-29T06:38:50.130Z,1015.14
2016-02-29T06:39:50.117Z,1015.2
2016-02-29T06:40:50.104Z,1015.21
2016-02-29T06:41:50.075Z,1015.21
2016-02-29T06:42:50.063Z,1015.21
2016-02-29T06:43:50.050Z,1015.23
2016-02-29T06:44:50.021Z,1015.19
2016-02-29T06:45:50.008Z,1015.21
2016-02-29T06:46:49.995Z,1015.22
2016-02-29T06:47:49.983Z,1015.2
2016-02-29T06:48:49.954Z,1015.23
2016-02-29T06:49:49.941Z,1015.24
2016-02-29T06:50:49.912Z,1015.23
2016-02-29T06:51:49.899Z,1015.26
2016-02-29T06:52:49.887Z,1015.26
2016-02-29T06:53:49.857Z,1015.25
2016-02-29T06:54:49.860Z,1015.31
2016-02-29T06:55:49.832Z,1015.33
2016-02-29T06:56:49.804Z,1015.31
2016-02-29T06:57:49.790Z,1015.33
2016-02-29T06:58:49.778Z,1015.34
2016-02-29T06:59:49.748Z,1015.35
2016-02-29T07:00:49.737Z,1015.33
2016-02-29T07:01:49.723Z,1015.35
2016-02-29T07:02:49.695Z,1015.3
2016-02-29T07:03:49.697Z,1015.31
2016-02-29T07:04:49.669Z,1015.31
2016-02-29T07:05:49.640Z,1015.31
2016-02-29T07:06:49.627Z,1015.37
2016-02-29T07:07:49.614Z,1015.37
2016-02-29T07:08:49.601Z,1015.36
2016-02-29T07:09:49.572Z,1015.39
2016-02-29T07:10:49.560Z,1015.41
2016-02-29T07:11:49.547Z,1015.45
2016-02-29T07:12:49.518Z,1015.45
2016-02-29T07:13:49.505Z,1015.48
2016-02-29T07:14:49.492Z,1015.49
2016-02-29T07:15:49.464Z,1015.54
2016-02-29T07:16:49.451Z,1015.53
2016-02-29T07:17:49.438Z,1015.55
2016-02-29T07:18:49.410Z,1015.55
2016-02-29T07:19:49.397Z,1015.51
2016-02-29T07:20:49.383Z,1015.47
2016-02-29T07:21:49.371Z,1015.49
2016-02-29T07:22:49.342Z,1015.5
2016-02-29T07:23:49.329Z,1015.49
2016-02-29T07:24:49.316Z,1015.51
2016-02-29T07:25:49.287Z,1015.52
2016-02-29T07:26:49.275Z,1015.51
2016-02-29T07:27:49.262Z,1015.51
2016-02-29T07:28:49.249Z,1015.51
2016-02-29T07:29:49.220Z,1015.49
2016-02-29T07:30:49.192Z,1015.49
2016-02-29T07:31:49.179Z,1015.52
2016-02-29T07:32:49.165Z,1015.49
2016-02-29T07:33:49.153Z,1015.53
2016-02-29T07:34:49.125Z,1015.54
2016-02-29T07:35:49.111Z,1015.53
2016-02-29T07:36:49.098Z,1015.57
2016-02-29T07:37:49.070Z,1015.54
2016-02-29T07:38:49.056Z,1015.59
2016-02-29T07:39:49.045Z,1015.59
2016-02-29T07:40:49.016Z,1015.59
2016-02-29T07:41:49.003Z,1015.63
2016-02-29T07:42:48.989Z,1015.63
2016-02-29T07:43:48.977Z,1015.66
2016-02-29T07:44:48.948Z,1015.68
2016-02-29T07:45:48.936Z,1015.66
2016-02-29T07:46:48.922Z,1015.73
2016-02-29T07:47:48.894Z,1015.68
2016-02-29T07:48:48.881Z,1015.72
2016-02-29T07:49:48.868Z,1015.75
2016-02-29T07:50:48.839Z,1015.72
2016-02-29T07:51:48.826Z,1015.76
2016-02-29T07:52:48.798Z,1015.77
2016-02-29T07:53:48.785Z,1015.83
2016-02-29T07:54:48.772Z,1015.81
2016-02-29T07:55:48.759Z,1015.81
2016-02-29T07:56:48.730Z,1015.82
2016-02-29T07:57:48.718Z,1015.83
2016-02-29T07:58:48.705Z,1015.83
2016-02-29T07:59:48.676Z,1015.87
2016-02-29T08:00:48.663Z,1015.83
2016-02-29T08:01:48.650Z,1015.85
2016-02-29T08:02:48.637Z,1015.87
2016-02-29T08:03:48.608Z,1015.83
2016-02-29T08:04:48.595Z,1015.96
2016-02-29T08:05:48.584Z,1015.89
2016-02-29T08:06:48.554Z,1015.83
2016-02-29T08:07:48.541Z,1015.88
2016-02-29T08:08:48.512Z,1015.87
2016-02-29T08:09:48.500Z,1015.82
2016-02-29T08:10:48.487Z,1015.81
2016-02-29T08:11:48.475Z,1015.87
2016-02-29T08:12:48.445Z,1015.84
2016-02-29T08:13:48.433Z,1015.92
2016-02-29T08:14:48.403Z,1015.85
2016-02-29T08:15:48.391Z,1016.24
2016-02-29T08:16:48.377Z,1016.24
2016-02-29T08:17:48.365Z,1016.19
2016-02-29T08:18:48.336Z,1016.19
2016-02-29T08:19:48.339Z,1016.21
2016-02-29T08:20:48.294Z,1016.28
2016-02-29T08:21:48.282Z,1016.25
2016-02-29T08:22:48.268Z,1016.2
2016-02-29T08:23:48.257Z,1016.22
2016-02-29T08:24:48.228Z,1016.2
2016-02-29T08:25:48.215Z,1016.2
2016-02-29T08:26:48.202Z,1016.18
2016-02-29T08:27:48.189Z,1016.22
2016-02-29T08:28:48.160Z,1016.23
2016-02-29T08:29:48.147Z,1016.22
2016-02-29T08:30:48.118Z,1016.19
2016-02-29T08:31:48.107Z,1016.23
2016-02-29T08:32:48.093Z,1016.2
2016-02-29T08:33:48.080Z,1016.25
2016-02-29T08:34:48.051Z,1016.23
2016-02-29T08:35:48.039Z,1016.27
2016-02-29T08:36:48.025Z,1016.25
2016-02-29T08:37:47.997Z,1016.29
2016-02-29T08:38:47.984Z,1016.35
2016-02-29T08:39:47.956Z,1016.31
2016-02-29T08:40:47.943Z,1016.31
2016-02-29T08:41:47.930Z,1016.36
2016-02-29T08:42:47.917Z,1016.34
2016-02-29T08:43:47.888Z,1016.35
2016-02-29T08:44:47.876Z,1016.38
2016-02-29T08:45:47.862Z,1016.38
2016-02-29T08:46:47.850Z,1016.38
2016-02-29T08:47:47.821Z,1016.41
2016-02-29T08:48:47.808Z,1016.39
2016-02-29T08:49:47.779Z,1016.11
2016-02-29T08:50:47.766Z,1016.08
2016-02-29T08:51:47.752Z,1016.05
2016-02-29T08:52:47.725Z,1016.03
2016-02-29T08:53:47.713Z,1016.01
2016-02-29T08:54:47.699Z,1015.99
2016-02-29T08:55:47.686Z,1015.99
2016-02-29T08:56:47.657Z,1016
2016-02-29T08:57:47.644Z,1015.93
2016-02-29T08:58:47.615Z,1015.98
2016-02-29T08:59:47.603Z,1015.94
2016-02-29T09:00:47.591Z,1016.01
2016-02-29T09:01:47.577Z,1015.97
2016-02-29T09:02:47.549Z,1015.93
2016-02-29T09:03:47.535Z,1016.02
2016-02-29T09:04:47.522Z,1015.95
2016-02-29T09:05:47.488Z,1015.99
2016-02-29T09:06:47.481Z,1015.92
2016-02-29T09:07:47.452Z,1015.97
2016-02-29T09:08:47.439Z,1015.97
2016-02-29T09:09:47.441Z,1015.97
2016-02-29T09:10:47.413Z,1015.95
2016-02-29T09:11:47.384Z,1015.98
2016-02-29T09:12:47.371Z,1015.95
2016-02-29T09:13:47.343Z,1015.95
2016-02-29T09:14:47.330Z,1016.02
2016-02-29T09:15:47.317Z,1015.99
2016-02-29T09:16:47.288Z,1016.01
2016-02-29T09:17:47.275Z,1016.01
2016-02-29T09:18:47.263Z,1016.01
2016-02-29T09:19:47.235Z,1016.01
2016-02-29T09:20:47.221Z,1016
2016-02-29T09:21:47.208Z,1015.97
2016-02-29T09:22:47.195Z,1015.98
2016-02-29T09:23:47.167Z,1015.99
2016-02-29T09:24:47.153Z,1015.97
2016-02-29T09:25:47.125Z,1016.01
2016-02-29T09:26:47.113Z,1016
2016-02-29T09:27:47.099Z,1015.98
2016-02-29T09:28:47.087Z,1015.99
2016-02-29T09:29:47.058Z,1015.94
2016-02-29T09:30:47.044Z,1016.01
2016-02-29T09:31:47.031Z,1016.01
2016-02-29T09:32:47.004Z,1015.95
2016-02-29T09:33:46.990Z,1015.99
2016-02-29T09:34:46.962Z,1015.99
2016-02-29T09:35:46.949Z,1015.95
2016-02-29T09:36:46.936Z,1015.99
2016-02-29T09:37:46.908Z,1015.98
2016-02-29T09:38:46.895Z,1016.01
2016-02-29T09:39:46.881Z,1016.01
2016-02-29T09:40:46.853Z,1016
2016-02-29T09:41:46.840Z,1015.99
2016-02-29T09:42:46.843Z,1016.01
2016-02-29T09:43:46.798Z,1015.99
2016-02-29T09:44:46.785Z,1015.95
2016-02-29T09:45:46.772Z,1015.96
2016-02-29T09:46:46.760Z,1015.96
2016-02-29T10:16:16.934Z,1015.99
2016-02-29T10:16:57.715Z,1015.99
2016-02-29T10:17:57.701Z,1016.01
2016-02-29T10:18:57.674Z,1016.06
2016-02-29T10:19:57.676Z,1016.02
2016-02-29T10:20:57.632Z,1016.06
2016-02-29T10:21:57.618Z,1016.07
2016-02-29T10:22:57.606Z,1016.04
2016-02-29T10:23:57.577Z,1016.04
2016-02-29T10:24:57.564Z,1016.07
2016-02-29T10:25:57.551Z,1016.07
2016-02-29T10:26:57.539Z,1016.02
2016-02-29T10:27:57.509Z,1016.02
2016-02-29T10:28:57.497Z,1016.03
2016-02-29T10:29:57.484Z,1016.01
2016-02-29T10:30:57.456Z,1016.01
2016-02-29T10:31:57.442Z,1015.98
2016-02-29T10:32:57.430Z,1016
2016-02-29T10:33:57.400Z,1015.97
2016-02-29T10:34:57.388Z,1015.95
2016-02-29T10:35:57.375Z,1016.01
2016-02-29T10:36:57.347Z,1015.95
2016-02-29T10:37:57.333Z,1015.98
2016-02-29T10:38:57.649Z,1015.9
2016-02-29T10:39:57.292Z,1015.91
2016-02-29T10:40:57.279Z,1015.88
2016-02-29T10:41:57.266Z,1015.9
2016-02-29T10:42:57.238Z,1015.89
2016-02-29T10:43:57.224Z,1015.87
2016-02-29T10:44:57.212Z,1015.9
2016-02-29T10:45:57.183Z,1015.94
2016-02-29T10:46:57.171Z,1015.93
2016-02-29T10:47:57.157Z,1015.95
2016-02-29T10:48:57.129Z,1015.98
2016-02-29T10:49:57.116Z,1015.93
2016-02-29T10:50:57.103Z,1015.95
2016-02-29T10:51:57.106Z,1015.92
2016-02-29T10:52:57.062Z,1015.91
2016-02-29T10:53:57.033Z,1015.89
2016-02-29T10:54:57.020Z,1015.92
2016-02-29T10:55:57.007Z,1015.9
2016-02-29T10:56:56.994Z,1015.89
2016-02-29T10:57:56.981Z,1015.91
2016-02-29T10:58:56.953Z,1015.91
2016-02-29T10:59:56.939Z,1015.92
2016-02-29T11:00:56.927Z,1015.88
2016-02-29T11:01:56.898Z,1015.87
2016-02-29T11:02:56.886Z,1015.87
2016-02-29T11:03:56.856Z,1015.91
2016-02-29T11:04:56.844Z,1015.82
2016-02-29T11:05:56.836Z,1015.85
2016-02-29T11:06:56.819Z,1015.89
2016-02-29T11:07:56.780Z,1015.84
2016-02-29T11:08:56.741Z,1015.84
2016-02-29T11:09:56.717Z,1015.8
2016-02-29T11:10:56.693Z,1015.78
2016-02-29T11:11:56.670Z,1015.78
2016-02-29T11:12:56.638Z,1015.78
2016-02-29T11:13:56.621Z,1015.76
2016-02-29T11:14:56.588Z,1015.8
2016-02-29T11:15:56.572Z,1015.78
2016-02-29T11:16:56.556Z,1015.78
2016-02-29T11:17:56.525Z,1015.74
2016-02-29T11:18:56.511Z,1015.72
2016-02-29T11:19:56.497Z,1015.72
2016-02-29T11:20:56.483Z,1015.69
2016-02-29T11:21:56.453Z,1015.72
2016-02-29T11:22:56.440Z,1015.69
2016-02-29T11:23:56.426Z,1015.71
2016-02-29T11:24:56.397Z,1015.66
2016-02-29T11:25:56.384Z,1015.67
2016-02-29T11:26:56.355Z,1015.63
2016-02-29T11:27:56.341Z,1015.63
2016-02-29T11:28:56.328Z,1015.67
2016-02-29T11:29:56.299Z,1015.66
2016-02-29T11:30:56.286Z,1015.65
2016-02-29T11:31:56.273Z,1015.66
2016-02-29T11:32:56.244Z,1015.67
2016-02-29T11:33:56.231Z,1015.66
2016-02-29T11:34:56.219Z,1015.65
2016-02-29T11:35:56.205Z,1015.6
2016-02-29T11:36:56.177Z,1015.6
2016-02-29T11:37:56.164Z,1015.63
2016-02-29T11:38:56.151Z,1015.61
2016-02-29T11:39:56.122Z,1015.65
2016-02-29T11:40:56.110Z,1015.65
2016-02-29T11:41:56.096Z,1015.66
2016-02-29T11:42:56.083Z,1015.63
2016-02-29T11:43:56.055Z,1015.61
2016-02-29T11:44:56.042Z,1015.59
2016-02-29T11:45:56.013Z,1015.56
2016-02-29T11:46:56.000Z,1015.58
2016-02-29T11:47:55.972Z,1015.58
2016-02-29T11:48:55.959Z,1015.56
2016-02-29T11:49:55.946Z,1015.56
2016-02-29T11:50:55.934Z,1015.54
2016-02-29T11:51:55.920Z,1015.5
2016-02-29T11:52:55.892Z,1015.56
2016-02-29T11:53:55.879Z,1015.56
2016-02-29T11:54:55.866Z,1015.52
2016-02-29T11:55:55.837Z,1015.53
2016-02-29T11:56:55.825Z,1015.54
2016-02-29T11:57:55.795Z,1015.52
2016-02-29T11:58:55.783Z,1015.55
2016-02-29T11:59:55.754Z,1015.55
2016-02-29T12:00:55.742Z,1015.54
2016-02-29T12:01:55.728Z,1015.48
2016-02-29T12:02:55.716Z,1015.42
2016-02-29T12:03:55.686Z,1015.51
2016-02-29T12:04:55.674Z,1015.51
2016-02-29T12:05:55.661Z,1015.46
2016-02-29T12:06:55.648Z,1015.46
2016-02-29T12:07:55.620Z,1015.39
2016-02-29T12:08:55.607Z,1015.41
2016-02-29T12:09:55.594Z,1015.39
2016-02-29T12:10:55.565Z,1015.39
2016-02-29T12:11:55.552Z,1015.33
2016-02-29T12:12:55.524Z,1015.36
2016-02-29T12:13:55.511Z,1015.3
2016-02-29T12:14:55.498Z,1015.28
2016-02-29T12:15:55.469Z,1015.33
2016-02-29T12:16:55.457Z,1015.29
2016-02-29T12:17:55.444Z,1015.28
2016-02-29T12:18:55.415Z,1015.25
2016-02-29T12:19:55.402Z,1015.27
2016-02-29T12:20:55.390Z,1015.24
2016-02-29T12:21:55.360Z,1015.22
2016-02-29T12:22:55.348Z,1015.22
2016-02-29T12:23:55.335Z,1015.2
2016-02-29T12:24:55.321Z,1015.22
2016-02-29T12:25:55.293Z,1015.22
2016-02-29T12:26:55.280Z,1015.12
2016-02-29T12:27:55.267Z,1015.17
2016-02-29T12:28:55.239Z,1015.17
2016-02-29T12:29:55.225Z,1015.15
2016-02-29T12:30:55.197Z,1015.19
2016-02-29T12:31:55.184Z,1015.12
2016-02-29T12:32:55.171Z,1015.12
2016-02-29T12:33:55.143Z,1015.08
2016-02-29T12:34:55.130Z,1015.05
2016-02-29T12:35:55.117Z,1015.06
2016-02-29T12:36:55.089Z,1015.12